PWSweather.com
Personal Weather Stations
Station Observations
TENMILE2
Watts Bar Lake, Ten Mile, TN 37880

Watts Bar LakeTen Mile, TN 37880

Lat: 35.686, Lon: -84.7068

Elevation: 767

Station Type: Davis VP2

http://www.wattsbarweather.net

High Low Average
Temperature 80.3°F26.8°F 62.2°F16.8°F 68.6°F20.3°F
Dew Point 69.5°F20.8°F 60.6°F15.9°F 64.0°F17.8°F
Winds 10.9 mph NE17.5 mph NE Calm Calm 2.1 mph 3.4 mph
Wind Gusts 17.5 mph28.2 mph -- 6.0 mph9.7 mph
Humidity 96% 58% 86%
Pressure 30.01 in1016.30 in 29.82 in1009.80 in -
Precipitation 1.65 in41.90 in - -
Hour Temp Dew Point Humidity Winds Wind Gusts Pressure Precip Precip Rate Daily Precip Total
12:00 AM 63.0°F17.2°C 61.5°F16.4°C 95% 1.3 mph NNE2.1 kmh NNE 3.8 mph6.1 kmh 30.01 in1016.3 mb 0.02 in0.5 mm 0.00 in0.0 mm 0.02 in0.5 mm
12:05 AM 62.9°F17.2°C 61.4°F16.3°C 95% Calm Calm 3.0 mph4.8 kmh 30.01 in1016.3 mb 0.02 in0.5 mm 0.00 in0.0 mm 0.02 in0.5 mm
12:10 AM 63.0°F17.2°C 61.5°F16.4°C 95% 1.3 mph E2.1 kmh E 3.0 mph4.8 kmh 30.01 in1016.3 mb 0.01 in0.3 mm 0.00 in0.0 mm 0.02 in0.5 mm
12:15 AM 63.0°F17.2°C 61.5°F16.4°C 95% 1.5 mph NE2.4 kmh NE 3.8 mph6.1 kmh 30.00 in1015.9 mb 0.01 in0.3 mm 0.00 in0.0 mm 0.02 in0.5 mm
12:20 AM 63.0°F17.2°C 61.5°F16.4°C 95% 2.2 mph S3.5 kmh S 3.8 mph6.1 kmh 30.00 in1015.9 mb 0.01 in0.3 mm 0.00 in0.0 mm 0.02 in0.5 mm
12:25 AM 63.0°F17.2°C 61.5°F16.4°C 95% Calm Calm 3.8 mph6.1 kmh 29.99 in1015.6 mb 0.01 in0.3 mm 0.00 in0.0 mm 0.02 in0.5 mm
12:30 AM 62.9°F17.2°C 61.4°F16.3°C 95% 6.3 mph NE10.1 kmh NE 11.3 mph18.2 kmh 29.96 in1014.6 mb 0.02 in0.5 mm 0.12 in3.0 mm 0.01 in0.3 mm
12:35 AM 62.9°F17.2°C 61.1°F16.2°C 94% 10.9 mph NE17.5 kmh NE 17.5 mph28.2 kmh 29.91 in1012.9 mb 0.02 in0.5 mm 0.00 in0.0 mm 0.01 in0.3 mm
12:40 AM 62.9°F17.2°C 61.1°F16.2°C 94% 4.0 mph NE6.4 kmh NE 17.5 mph28.2 kmh 29.93 in1013.5 mb 0.01 in0.3 mm 0.00 in0.0 mm 0.01 in0.3 mm
12:45 AM 62.9°F17.2°C 61.1°F16.2°C 94% 5.1 mph SW8.2 kmh SW 15.0 mph24.1 kmh 29.96 in1014.6 mb 0.02 in0.5 mm 0.12 in3.0 mm 0.02 in0.5 mm
12:50 AM 62.9°F17.2°C 61.1°F16.2°C 94% 1.7 mph ENE2.7 kmh ENE 13.0 mph20.9 kmh 29.95 in1014.2 mb 0.02 in0.5 mm 0.00 in0.0 mm 0.02 in0.5 mm
12:55 AM 62.8°F17.1°C 61.0°F16.1°C 94% 1.3 mph SW2.1 kmh SW 10.0 mph16.1 kmh 29.95 in1014.2 mb 0.02 in0.5 mm 0.00 in0.0 mm 0.02 in0.5 mm
01:00 AM 62.8°F17.1°C 61.0°F16.1°C 94% 1.6 mph S2.6 kmh S 7.0 mph11.3 kmh 29.95 in1014.2 mb 0.02 in0.5 mm 0.00 in0.0 mm 0.02 in0.5 mm
01:05 AM 62.8°F17.1°C 61.0°F16.1°C 94% 1.4 mph SE2.3 kmh SE 7.0 mph11.3 kmh 29.95 in1014.2 mb 0.02 in0.5 mm 0.00 in0.0 mm 0.02 in0.5 mm
01:10 AM 62.7°F17.1°C 60.9°F16.1°C 94% 2.0 mph NE3.2 kmh NE 5.0 mph8.0 kmh 29.94 in1013.9 mb 0.02 in0.5 mm 0.00 in0.0 mm 0.02 in0.5 mm
01:15 AM 62.6°F17.0°C 60.8°F16.0°C 94% 1.7 mph NE2.7 kmh NE 5.0 mph8.0 kmh 29.93 in1013.5 mb 0.02 in0.5 mm 0.00 in0.0 mm 0.02 in0.5 mm
01:20 AM 62.6°F17.0°C 60.8°F16.0°C 94% Calm Calm 5.0 mph8.0 kmh 29.93 in1013.5 mb 0.02 in0.5 mm 0.00 in0.0 mm 0.02 in0.5 mm
01:25 AM 62.5°F16.9°C 61.0°F16.1°C 95% Calm Calm 5.0 mph8.0 kmh 29.93 in1013.5 mb 0.02 in0.5 mm 0.00 in0.0 mm 0.02 in0.5 mm
01:30 AM 62.4°F16.9°C 60.6°F15.9°C 94% 1.4 mph NNW2.3 kmh NNW 5.0 mph8.0 kmh 29.92 in1013.2 mb 0.01 in0.3 mm 0.00 in0.0 mm 0.02 in0.5 mm
01:35 AM 62.2°F16.8°C 60.7°F15.9°C 95% 1.3 mph NW2.1 kmh NW 5.0 mph8.0 kmh 29.92 in1013.2 mb 0.01 in0.3 mm 0.00 in0.0 mm 0.02 in0.5 mm
01:40 AM 62.3°F16.8°C 60.8°F16.0°C 95% 1.3 mph NW2.1 kmh NW 3.0 mph4.8 kmh 29.91 in1012.9 mb 0.00 in0.0 mm 0.00 in0.0 mm 0.02 in0.5 mm
01:45 AM 62.2°F16.8°C 60.8°F16.0°C 95% Calm Calm 3.0 mph4.8 kmh 29.92 in1013.2 mb 0.00 in0.0 mm 0.00 in0.0 mm 0.02 in0.5 mm
01:50 AM 62.2°F16.8°C 60.8°F16.0°C 95% 1.3 mph NW2.1 kmh NW 2.0 mph3.2 kmh 29.94 in1013.9 mb 0.00 in0.0 mm 0.00 in0.0 mm 0.02 in0.5 mm
01:55 AM 62.2°F16.8°C 60.8°F16.0°C 95% 1.7 mph S2.7 kmh S 3.8 mph6.1 kmh 29.94 in1013.9 mb 0.00 in0.0 mm 0.00 in0.0 mm 0.02 in0.5 mm
02:00 AM 62.3°F16.8°C 60.8°F16.0°C 95% 2.3 mph SSE3.7 kmh SSE 5.0 mph8.0 kmh 29.94 in1013.9 mb 0.00 in0.0 mm 0.00 in0.0 mm 0.02 in0.5 mm
02:05 AM 62.3°F16.8°C 60.8°F16.0°C 95% 2.2 mph S3.5 kmh S 5.0 mph8.0 kmh 29.95 in1014.2 mb 0.00 in0.0 mm 0.00 in0.0 mm 0.02 in0.5 mm
02:10 AM 62.4°F16.9°C 60.9°F16.1°C 95% 1.5 mph SSE2.4 kmh SSE 5.0 mph8.0 kmh 29.95 in1014.2 mb 0.00 in0.0 mm 0.00 in0.0 mm 0.02 in0.5 mm
02:15 AM 62.4°F16.9°C 60.9°F16.1°C 95% 2.9 mph SSW4.7 kmh SSW 6.3 mph10.1 kmh 29.96 in1014.6 mb 0.00 in0.0 mm 0.00 in0.0 mm 0.02 in0.5 mm
02:20 AM 62.5°F16.9°C 61.0°F16.1°C 95% 2.1 mph SSE3.4 kmh SSE 6.3 mph10.1 kmh 29.97 in1014.9 mb 0.00 in0.0 mm 0.00 in0.0 mm 0.02 in0.5 mm
02:25 AM 62.6°F17.0°C 61.1°F16.2°C 95% 1.7 mph SSE2.7 kmh SSE 5.0 mph8.0 kmh 29.97 in1014.9 mb 0.00 in0.0 mm 0.00 in0.0 mm 0.02 in0.5 mm
02:30 AM 62.8°F17.1°C 61.6°F16.4°C 96% 1.6 mph SE2.6 kmh SE 8.8 mph14.2 kmh 29.96 in1014.6 mb 0.00 in0.0 mm 0.00 in0.0 mm 0.02 in0.5 mm
02:35 AM 62.9°F17.2°C 61.4°F16.3°C 95% 1.3 mph SE2.1 kmh SE 8.8 mph14.2 kmh 29.95 in1014.2 mb 0.00 in0.0 mm 0.00 in0.0 mm 0.02 in0.5 mm
02:40 AM 62.9°F17.2°C 61.4°F16.3°C 95% 1.9 mph SE3.1 kmh SE 7.0 mph11.3 kmh 29.94 in1013.9 mb 0.01 in0.3 mm 0.12 in3.0 mm 0.03 in0.8 mm
02:45 AM 62.9°F17.2°C 61.4°F16.3°C 95% 1.3 mph SSE2.1 kmh SSE 7.0 mph11.3 kmh 29.94 in1013.9 mb 0.01 in0.3 mm 0.00 in0.0 mm 0.03 in0.8 mm
02:50 AM 62.9°F17.2°C 61.4°F16.3°C 95% Calm Calm 3.8 mph6.1 kmh 29.93 in1013.5 mb 0.01 in0.3 mm 0.00 in0.0 mm 0.03 in0.8 mm
02:56 AM 62.8°F17.1°C 61.3°F16.3°C 95% Calm Calm 3.0 mph4.8 kmh 29.93 in1013.5 mb 0.01 in0.3 mm 0.00 in0.0 mm 0.03 in0.8 mm
03:01 AM 62.7°F17.1°C 61.2°F16.2°C 95% Calm Calm 2.0 mph3.2 kmh 29.92 in1013.2 mb 0.01 in0.3 mm 0.00 in0.0 mm 0.03 in0.8 mm
03:06 AM 62.7°F17.1°C 61.2°F16.2°C 95% 1.3 mph SE2.1 kmh SE 1.3 mph2.1 kmh 29.92 in1013.2 mb 0.01 in0.3 mm 0.00 in0.0 mm 0.03 in0.8 mm
03:11 AM 62.7°F17.1°C 61.2°F16.2°C 95% 2.5 mph SSE4.0 kmh SSE 4.0 mph6.4 kmh 29.92 in1013.2 mb 0.01 in0.3 mm 0.00 in0.0 mm 0.03 in0.8 mm
03:16 AM 62.7°F17.1°C 61.2°F16.2°C 95% 2.7 mph SSE4.3 kmh SSE 5.0 mph8.0 kmh 29.92 in1013.2 mb 0.01 in0.3 mm 0.00 in0.0 mm 0.03 in0.8 mm
03:21 AM 62.8°F17.1°C 61.3°F16.3°C 95% 2.5 mph SSE4.0 kmh SSE 5.0 mph8.0 kmh 29.92 in1013.2 mb 0.01 in0.3 mm 0.00 in0.0 mm 0.03 in0.8 mm
03:26 AM 62.8°F17.1°C 61.3°F16.3°C 95% 3.8 mph SSE6.1 kmh SSE 6.3 mph10.1 kmh 29.92 in1013.2 mb 0.02 in0.5 mm 0.12 in3.0 mm 0.04 in1.0 mm
03:31 AM 62.8°F17.1°C 61.3°F16.3°C 95% 1.7 mph SE2.7 kmh SE 6.3 mph10.1 kmh 29.91 in1012.9 mb 0.02 in0.5 mm 0.00 in0.0 mm 0.04 in1.0 mm
03:36 AM 62.8°F17.1°C 61.3°F16.3°C 95% 2.9 mph S4.7 kmh S 5.0 mph8.0 kmh 29.92 in1013.2 mb 0.02 in0.5 mm 0.00 in0.0 mm 0.04 in1.0 mm
03:41 AM 62.8°F17.1°C 61.3°F16.3°C 95% 2.4 mph S3.9 kmh S 8.8 mph14.2 kmh 29.91 in1012.9 mb 0.01 in0.3 mm 0.00 in0.0 mm 0.04 in1.0 mm
03:46 AM 62.8°F17.1°C 61.3°F16.3°C 95% 3.4 mph S5.5 kmh S 8.8 mph14.2 kmh 29.90 in1012.5 mb 0.01 in0.3 mm 0.00 in0.0 mm 0.04 in1.0 mm
03:51 AM 62.9°F17.2°C 61.4°F16.3°C 95% 2.8 mph S4.5 kmh S 7.5 mph12.1 kmh 29.91 in1012.9 mb 0.01 in0.3 mm 0.00 in0.0 mm 0.04 in1.0 mm
03:56 AM 62.9°F17.2°C 61.4°F16.3°C 95% 2.2 mph SSE3.5 kmh SSE 8.8 mph14.2 kmh 29.91 in1012.9 mb 0.01 in0.3 mm 0.00 in0.0 mm 0.04 in1.0 mm
04:01 AM 63.0°F17.2°C 61.5°F16.4°C 95% 3.0 mph SE4.8 kmh SE 8.8 mph14.2 kmh 29.91 in1012.9 mb 0.01 in0.3 mm 0.00 in0.0 mm 0.04 in1.0 mm
04:06 AM 63.0°F17.2°C 61.5°F16.4°C 95% 2.0 mph S3.2 kmh S 7.0 mph11.3 kmh 29.91 in1012.9 mb 0.01 in0.3 mm 0.00 in0.0 mm 0.04 in1.0 mm
04:11 AM 63.1°F17.3°C 61.6°F16.4°C 95% 2.2 mph SE3.5 kmh SE 6.3 mph10.1 kmh 29.91 in1012.9 mb 0.01 in0.3 mm 0.00 in0.0 mm 0.04 in1.0 mm
04:16 AM 63.1°F17.3°C 61.6°F16.4°C 95% 1.5 mph SE2.4 kmh SE 5.0 mph8.0 kmh 29.90 in1012.5 mb 0.01 in0.3 mm 0.00 in0.0 mm 0.04 in1.0 mm
04:21 AM 63.1°F17.3°C 61.6°F16.4°C 95% 1.5 mph SE2.4 kmh SE 5.0 mph8.0 kmh 29.90 in1012.5 mb 0.01 in0.3 mm 0.00 in0.0 mm 0.04 in1.0 mm
04:26 AM 63.1°F17.3°C 61.6°F16.4°C 95% 1.3 mph SSE2.1 kmh SSE 5.0 mph8.0 kmh 29.89 in1012.2 mb 0.00 in0.0 mm 0.00 in0.0 mm 0.04 in1.0 mm
04:31 AM 63.0°F17.2°C 61.5°F16.4°C 95% Calm Calm 3.0 mph4.8 kmh 29.89 in1012.2 mb 0.00 in0.0 mm 0.00 in0.0 mm 0.04 in1.0 mm
04:36 AM 62.9°F17.2°C 61.4°F16.3°C 95% Calm Calm 3.0 mph4.8 kmh 29.89 in1012.2 mb 0.00 in0.0 mm 0.00 in0.0 mm 0.04 in1.0 mm
04:41 AM 62.9°F17.2°C 61.4°F16.3°C 95% Calm Calm 1.0 mph1.6 kmh 29.90 in1012.5 mb 0.00 in0.0 mm 0.00 in0.0 mm 0.04 in1.0 mm
04:46 AM 62.9°F17.2°C 61.4°F16.3°C 95% Calm Calm -- 29.91 in1012.9 mb 0.00 in0.0 mm 0.00 in0.0 mm 0.04 in1.0 mm
04:51 AM 62.9°F17.2°C 61.4°F16.3°C 95% 1.3 mph SSE2.1 kmh SSE 2.0 mph3.2 kmh 29.91 in1012.9 mb 0.00 in0.0 mm 0.00 in0.0 mm 0.04 in1.0 mm
04:56 AM 62.8°F17.1°C 61.3°F16.3°C 95% 1.3 mph SE2.1 kmh SE 2.0 mph3.2 kmh 29.91 in1012.9 mb 0.00 in0.0 mm 0.00 in0.0 mm 0.04 in1.0 mm
05:01 AM 63.0°F17.2°C 61.8°F16.6°C 96% 1.3 mph E2.1 kmh E 2.5 mph4.0 kmh 29.92 in1013.2 mb 0.00 in0.0 mm 0.00 in0.0 mm 0.04 in1.0 mm
05:06 AM 62.9°F17.2°C 61.7°F16.5°C 96% Calm Calm 2.5 mph4.0 kmh 29.92 in1013.2 mb 0.00 in0.0 mm 0.00 in0.0 mm 0.04 in1.0 mm
05:11 AM 63.0°F17.2°C 61.8°F16.6°C 96% 2.2 mph SSE3.5 kmh SSE 3.8 mph6.1 kmh 29.92 in1013.2 mb 0.01 in0.3 mm 0.12 in3.0 mm 0.05 in1.3 mm
05:16 AM 63.0°F17.2°C 61.8°F16.6°C 96% 2.0 mph SSE3.2 kmh SSE 4.0 mph6.4 kmh 29.92 in1013.2 mb 0.01 in0.3 mm 0.00 in0.0 mm 0.05 in1.3 mm
05:21 AM 62.9°F17.2°C 61.7°F16.5°C 96% 1.9 mph SW3.1 kmh SW 4.0 mph6.4 kmh 29.92 in1013.2 mb 0.02 in0.5 mm 0.12 in3.0 mm 0.06 in1.5 mm
05:26 AM 63.0°F17.2°C 61.8°F16.6°C 96% 1.3 mph SW2.1 kmh SW 4.0 mph6.4 kmh 29.91 in1012.9 mb 0.02 in0.5 mm 0.00 in0.0 mm 0.06 in1.5 mm
05:31 AM 63.0°F17.2°C 61.5°F16.4°C 95% 1.9 mph ESE3.1 kmh ESE 4.0 mph6.4 kmh 29.91 in1012.9 mb 0.03 in0.8 mm 0.12 in3.0 mm 0.07 in1.8 mm
05:36 AM 63.0°F17.2°C 61.5°F16.4°C 95% 1.7 mph E2.7 kmh E 4.0 mph6.4 kmh 29.90 in1012.5 mb 0.04 in1.0 mm 0.12 in3.0 mm 0.08 in2.0 mm
05:41 AM 63.0°F17.2°C 61.5°F16.4°C 95% 1.3 mph SE2.1 kmh SE 5.0 mph8.0 kmh 29.90 in1012.5 mb 0.05 in1.3 mm 0.12 in3.0 mm 0.09 in2.3 mm
05:46 AM 62.9°F17.2°C 61.4°F16.3°C 95% 1.3 mph NNE2.1 kmh NNE 5.0 mph8.0 kmh 29.89 in1012.2 mb 0.06 in1.5 mm 0.12 in3.0 mm 0.11 in2.8 mm
05:51 AM 62.9°F17.2°C 61.4°F16.3°C 95% 2.5 mph NE4.0 kmh NE 5.0 mph8.0 kmh 29.88 in1011.9 mb 0.07 in1.8 mm 0.12 in3.0 mm 0.12 in3.0 mm
05:56 AM 63.0°F17.2°C 61.5°F16.4°C 95% 3.1 mph NE5.0 kmh NE 7.5 mph12.1 kmh 29.86 in1011.2 mb 0.07 in1.8 mm 0.00 in0.0 mm 0.12 in3.0 mm
06:01 AM 62.9°F17.2°C 61.4°F16.3°C 95% 2.4 mph NE3.9 kmh NE 7.5 mph12.1 kmh 29.85 in1010.8 mb 0.08 in2.0 mm 0.01 in0.3 mm 0.13 in3.3 mm
06:06 AM 62.9°F17.2°C 61.4°F16.3°C 95% 3.5 mph E5.6 kmh E 10.0 mph16.1 kmh 29.85 in1010.8 mb 0.08 in2.0 mm 0.00 in0.0 mm 0.13 in3.3 mm
06:11 AM 62.9°F17.2°C 61.4°F16.3°C 95% 2.6 mph SW4.2 kmh SW 10.0 mph16.1 kmh 29.86 in1011.2 mb 0.07 in1.8 mm 0.00 in0.0 mm 0.13 in3.3 mm
06:16 AM 62.9°F17.2°C 61.4°F16.3°C 95% 2.3 mph S3.7 kmh S 7.0 mph11.3 kmh 29.85 in1010.8 mb 0.07 in1.8 mm 0.00 in0.0 mm 0.13 in3.3 mm
06:21 AM 62.8°F17.1°C 61.3°F16.3°C 95% 2.3 mph S3.7 kmh S 7.0 mph11.3 kmh 29.84 in1010.5 mb 0.06 in1.5 mm 0.00 in0.0 mm 0.13 in3.3 mm
06:27 AM 62.8°F17.1°C 61.3°F16.3°C 95% 1.3 mph E2.1 kmh E 6.3 mph10.1 kmh 29.84 in1010.5 mb 0.06 in1.5 mm 0.00 in0.0 mm 0.13 in3.3 mm
06:32 AM 62.7°F17.1°C 61.2°F16.2°C 95% 2.2 mph S3.5 kmh S 4.0 mph6.4 kmh 29.84 in1010.5 mb 0.05 in1.3 mm 0.00 in0.0 mm 0.13 in3.3 mm
06:37 AM 62.6°F17.0°C 61.1°F16.2°C 95% 3.5 mph SW5.6 kmh SW 6.3 mph10.1 kmh 29.83 in1010.2 mb 0.04 in1.0 mm 0.00 in0.0 mm 0.13 in3.3 mm
06:42 AM 62.6°F17.0°C 61.1°F16.2°C 95% Calm Calm 6.3 mph10.1 kmh 29.82 in1009.8 mb 0.03 in0.8 mm 0.00 in0.0 mm 0.13 in3.3 mm
06:47 AM 62.6°F17.0°C 61.1°F16.2°C 95% 1.3 mph SE2.1 kmh SE 5.0 mph8.0 kmh 29.82 in1009.8 mb 0.02 in0.5 mm 0.00 in0.0 mm 0.13 in3.3 mm
06:52 AM 62.6°F17.0°C 61.1°F16.2°C 95% 1.9 mph SW3.1 kmh SW 5.0 mph8.0 kmh 29.83 in1010.2 mb 0.01 in0.3 mm 0.00 in0.0 mm 0.13 in3.3 mm
06:57 AM 62.6°F17.0°C 61.1°F16.2°C 95% 1.6 mph SW2.6 kmh SW 5.0 mph8.0 kmh 29.84 in1010.5 mb 0.01 in0.3 mm 0.00 in0.0 mm 0.13 in3.3 mm
07:02 AM 62.6°F17.0°C 61.1°F16.2°C 95% 1.6 mph S2.6 kmh S 4.0 mph6.4 kmh 29.85 in1010.8 mb 0.00 in0.0 mm 0.00 in0.0 mm 0.13 in3.3 mm
07:07 AM 62.7°F17.1°C 61.2°F16.2°C 95% 1.3 mph W2.1 kmh W 4.0 mph6.4 kmh 29.86 in1011.2 mb 0.00 in0.0 mm 0.00 in0.0 mm 0.13 in3.3 mm
07:12 AM 62.8°F17.1°C 61.3°F16.3°C 95% 1.3 mph WSW2.1 kmh WSW 3.0 mph4.8 kmh 29.87 in1011.5 mb 0.00 in0.0 mm 0.00 in0.0 mm 0.13 in3.3 mm
07:17 AM 62.8°F17.1°C 61.3°F16.3°C 95% Calm Calm 2.5 mph4.0 kmh 29.88 in1011.9 mb 0.00 in0.0 mm 0.00 in0.0 mm 0.13 in3.3 mm
07:22 AM 62.9°F17.2°C 61.4°F16.3°C 95% 1.3 mph SE2.1 kmh SE 2.5 mph4.0 kmh 29.88 in1011.9 mb 0.00 in0.0 mm 0.00 in0.0 mm 0.13 in3.3 mm
07:27 AM 63.0°F17.2°C 61.8°F16.6°C 96% Calm Calm 2.5 mph4.0 kmh 29.89 in1012.2 mb 0.00 in0.0 mm 0.00 in0.0 mm 0.13 in3.3 mm
07:32 AM 63.1°F17.3°C 61.6°F16.4°C 95% 3.3 mph SE5.3 kmh SE 5.0 mph8.0 kmh 29.89 in1012.2 mb 0.00 in0.0 mm 0.00 in0.0 mm 0.13 in3.3 mm
07:37 AM 63.2°F17.3°C 61.7°F16.5°C 95% 1.8 mph S2.9 kmh S 5.0 mph8.0 kmh 29.89 in1012.2 mb 0.00 in0.0 mm 0.00 in0.0 mm 0.13 in3.3 mm
07:42 AM 63.2°F17.3°C 61.7°F16.5°C 95% 1.7 mph SSE2.7 kmh SSE 6.3 mph10.1 kmh 29.90 in1012.5 mb 0.00 in0.0 mm 0.00 in0.0 mm 0.13 in3.3 mm
07:47 AM 63.3°F17.4°C 61.8°F16.6°C 95% 1.9 mph S3.1 kmh S 6.3 mph10.1 kmh 29.89 in1012.2 mb 0.00 in0.0 mm 0.00 in0.0 mm 0.13 in3.3 mm
07:52 AM 63.4°F17.4°C 62.2°F16.8°C 96% 1.3 mph E2.1 kmh E 6.3 mph10.1 kmh 29.89 in1012.2 mb 0.00 in0.0 mm 0.00 in0.0 mm 0.13 in3.3 mm
07:57 AM 63.4°F17.4°C 62.2°F16.8°C 96% Calm Calm 5.0 mph8.0 kmh 29.88 in1011.9 mb 0.00 in0.0 mm 0.00 in0.0 mm 0.13 in3.3 mm
08:02 AM 63.4°F17.4°C 61.9°F16.6°C 95% 2.9 mph S4.7 kmh S 5.0 mph8.0 kmh 29.89 in1012.2 mb 0.00 in0.0 mm 0.00 in0.0 mm 0.13 in3.3 mm
08:07 AM 63.4°F17.4°C 61.9°F16.6°C 95% 2.1 mph S3.4 kmh S 5.0 mph8.0 kmh 29.89 in1012.2 mb 0.00 in0.0 mm 0.00 in0.0 mm 0.13 in3.3 mm
08:12 AM 63.6°F17.6°C 62.1°F16.7°C 95% 2.6 mph SSE4.2 kmh SSE 5.0 mph8.0 kmh 29.89 in1012.2 mb 0.00 in0.0 mm 0.00 in0.0 mm 0.13 in3.3 mm
08:17 AM 63.6°F17.6°C 62.1°F16.7°C 95% 3.8 mph S6.1 kmh S 6.3 mph10.1 kmh 29.89 in1012.2 mb 0.00 in0.0 mm 0.00 in0.0 mm 0.13 in3.3 mm
08:22 AM 63.7°F17.6°C 62.2°F16.8°C 95% 2.1 mph ESE3.4 kmh ESE 6.3 mph10.1 kmh 29.90 in1012.5 mb 0.00 in0.0 mm 0.00 in0.0 mm 0.13 in3.3 mm
08:27 AM 63.7°F17.6°C 62.2°F16.8°C 95% 2.9 mph S4.7 kmh S 6.3 mph10.1 kmh 29.89 in1012.2 mb 0.00 in0.0 mm 0.00 in0.0 mm 0.13 in3.3 mm
08:32 AM 63.7°F17.6°C 62.2°F16.8°C 95% 1.8 mph S2.9 kmh S 6.3 mph10.1 kmh 29.89 in1012.2 mb 0.00 in0.0 mm 0.00 in0.0 mm 0.13 in3.3 mm
08:37 AM 63.7°F17.6°C 62.2°F16.8°C 95% 1.6 mph WNW2.6 kmh WNW 5.0 mph8.0 kmh 29.89 in1012.2 mb 0.00 in0.0 mm 0.00 in0.0 mm 0.13 in3.3 mm
08:42 AM 63.8°F17.7°C 62.3°F16.8°C 95% 1.8 mph S2.9 kmh S 5.0 mph8.0 kmh 29.89 in1012.2 mb 0.00 in0.0 mm 0.00 in0.0 mm 0.13 in3.3 mm
08:47 AM 63.8°F17.7°C 62.3°F16.8°C 95% 2.3 mph SSE3.7 kmh SSE 4.0 mph6.4 kmh 29.88 in1011.9 mb 0.00 in0.0 mm 0.00 in0.0 mm 0.13 in3.3 mm
08:52 AM 63.9°F17.7°C 62.4°F16.9°C 95% Calm Calm 3.8 mph6.1 kmh 29.88 in1011.9 mb 0.00 in0.0 mm 0.00 in0.0 mm 0.13 in3.3 mm
08:57 AM 64.0°F17.8°C 62.5°F16.9°C 95% 2.5 mph S4.0 kmh S 5.0 mph8.0 kmh 29.89 in1012.2 mb 0.00 in0.0 mm 0.00 in0.0 mm 0.13 in3.3 mm
09:02 AM 64.1°F17.8°C 62.6°F17.0°C 95% 4.8 mph SSE7.7 kmh SSE 8.8 mph14.2 kmh 29.90 in1012.5 mb 0.00 in0.0 mm 0.00 in0.0 mm 0.13 in3.3 mm
09:07 AM 64.1°F17.8°C 62.6°F17.0°C 95% 1.9 mph SE3.1 kmh SE 8.8 mph14.2 kmh 29.90 in1012.5 mb 0.01 in0.3 mm 0.12 in3.0 mm 0.14 in3.6 mm
09:12 AM 64.2°F17.9°C 62.7°F17.1°C 95% 5.6 mph S9.0 kmh S 12.5 mph20.1 kmh 29.91 in1012.9 mb 0.01 in0.3 mm 0.00 in0.0 mm 0.14 in3.6 mm
09:17 AM 64.4°F18.0°C 62.9°F17.2°C 95% 3.6 mph S5.8 kmh S 12.5 mph20.1 kmh 29.91 in1012.9 mb 0.01 in0.3 mm 0.00 in0.0 mm 0.14 in3.6 mm
09:22 AM 64.6°F18.1°C 62.8°F17.1°C 94% 6.5 mph SSE10.5 kmh SSE 17.5 mph28.2 kmh 29.91 in1012.9 mb 0.01 in0.3 mm 0.00 in0.0 mm 0.14 in3.6 mm
09:27 AM 64.9°F18.3°C 63.4°F17.4°C 95% 2.3 mph S3.7 kmh S 17.5 mph28.2 kmh 29.91 in1012.9 mb 0.01 in0.3 mm 0.00 in0.0 mm 0.14 in3.6 mm
09:32 AM 65.2°F18.4°C 63.7°F17.6°C 95% 6.8 mph S10.9 kmh S 14.0 mph22.5 kmh 29.91 in1012.9 mb 0.01 in0.3 mm 0.00 in0.0 mm 0.14 in3.6 mm
09:37 AM 65.6°F18.7°C 63.5°F17.5°C 93% 3.1 mph SSE5.0 kmh SSE 15.0 mph24.1 kmh 29.92 in1013.2 mb 0.01 in0.3 mm 0.00 in0.0 mm 0.14 in3.6 mm
09:42 AM 65.9°F18.8°C 63.8°F17.7°C 93% 6.4 mph S10.3 kmh S 15.0 mph24.1 kmh 29.92 in1013.2 mb 0.01 in0.3 mm 0.00 in0.0 mm 0.14 in3.6 mm
09:47 AM 66.0°F18.9°C 63.9°F17.7°C 93% 3.1 mph S5.0 kmh S 12.5 mph20.1 kmh 29.92 in1013.2 mb 0.01 in0.3 mm 0.00 in0.0 mm 0.14 in3.6 mm
09:52 AM 66.3°F19.1°C 64.2°F17.9°C 93% 3.5 mph SSE5.6 kmh SSE 12.0 mph19.3 kmh 29.92 in1013.2 mb 0.01 in0.3 mm 0.00 in0.0 mm 0.14 in3.6 mm
09:57 AM 66.5°F19.2°C 64.1°F17.8°C 92% 4.7 mph SSE7.6 kmh SSE 11.3 mph18.2 kmh 29.93 in1013.5 mb 0.01 in0.3 mm 0.00 in0.0 mm 0.14 in3.6 mm
10:02 AM 66.6°F19.2°C 64.2°F17.9°C 92% 4.1 mph S6.6 kmh S 11.3 mph18.2 kmh 29.93 in1013.5 mb 0.01 in0.3 mm 0.00 in0.0 mm 0.14 in3.6 mm
10:07 AM 66.6°F19.2°C 63.9°F17.7°C 91% 5.0 mph S8.0 kmh S 9.0 mph14.5 kmh 29.93 in1013.5 mb 0.00 in0.0 mm 0.00 in0.0 mm 0.14 in3.6 mm
10:12 AM 66.7°F19.3°C 64.0°F17.8°C 91% 5.6 mph S9.0 kmh S 11.3 mph18.2 kmh 29.93 in1013.5 mb 0.00 in0.0 mm 0.00 in0.0 mm 0.14 in3.6 mm
10:17 AM 66.7°F19.3°C 64.0°F17.8°C 91% 5.1 mph S8.2 kmh S 15.0 mph24.1 kmh 29.93 in1013.5 mb 0.00 in0.0 mm 0.00 in0.0 mm 0.14 in3.6 mm
10:22 AM 66.8°F19.3°C 64.1°F17.8°C 91% 3.9 mph S6.3 kmh S 15.0 mph24.1 kmh 29.93 in1013.5 mb 0.00 in0.0 mm 0.00 in0.0 mm 0.14 in3.6 mm
10:27 AM 67.0°F19.4°C 64.0°F17.8°C 90% 6.7 mph S10.8 kmh S 12.0 mph19.3 kmh 29.93 in1013.5 mb 0.00 in0.0 mm 0.00 in0.0 mm 0.14 in3.6 mm
10:33 AM 67.2°F19.6°C 64.2°F17.9°C 90% 4.8 mph SSE7.7 kmh SSE 11.3 mph18.2 kmh 29.93 in1013.5 mb 0.00 in0.0 mm 0.00 in0.0 mm 0.14 in3.6 mm
10:38 AM 67.4°F19.7°C 64.3°F17.9°C 90% 3.5 mph S5.6 kmh S 11.3 mph18.2 kmh 29.93 in1013.5 mb 0.00 in0.0 mm 0.00 in0.0 mm 0.14 in3.6 mm
10:43 AM 67.6°F19.8°C 64.5°F18.1°C 90% 6.3 mph S10.1 kmh S 11.3 mph18.2 kmh 29.94 in1013.9 mb 0.00 in0.0 mm 0.00 in0.0 mm 0.14 in3.6 mm
10:48 AM 67.8°F19.9°C 64.7°F18.2°C 90% 2.2 mph SE3.5 kmh SE 11.3 mph18.2 kmh 29.93 in1013.5 mb 0.00 in0.0 mm 0.00 in0.0 mm 0.14 in3.6 mm
10:53 AM 68.0°F20.0°C 64.6°F18.1°C 89% 4.6 mph SSE7.4 kmh SSE 10.0 mph16.1 kmh 29.93 in1013.5 mb 0.00 in0.0 mm 0.00 in0.0 mm 0.14 in3.6 mm
10:58 AM 68.3°F20.2°C 65.2°F18.4°C 90% 5.1 mph SSE8.2 kmh SSE 10.0 mph16.1 kmh 29.93 in1013.5 mb 0.00 in0.0 mm 0.00 in0.0 mm 0.14 in3.6 mm
11:03 AM 68.5°F20.3°C 65.1°F18.4°C 89% 6.9 mph S11.1 kmh S 13.8 mph22.2 kmh 29.93 in1013.5 mb 0.00 in0.0 mm 0.00 in0.0 mm 0.14 in3.6 mm
11:08 AM 68.8°F20.4°C 65.1°F18.4°C 88% 8.6 mph S13.8 kmh S 13.8 mph22.2 kmh 29.93 in1013.5 mb 0.00 in0.0 mm 0.00 in0.0 mm 0.14 in3.6 mm
11:13 AM 69.2°F20.7°C 65.5°F18.6°C 88% 5.5 mph S8.9 kmh S 16.3 mph26.2 kmh 29.93 in1013.5 mb 0.00 in0.0 mm 0.00 in0.0 mm 0.14 in3.6 mm
11:18 AM 69.7°F20.9°C 66.0°F18.9°C 88% 4.7 mph S7.6 kmh S 16.3 mph26.2 kmh 29.93 in1013.5 mb 0.00 in0.0 mm 0.00 in0.0 mm 0.14 in3.6 mm
11:23 AM 70.1°F21.2°C 66.0°F18.9°C 87% 3.4 mph SSW5.5 kmh SSW 13.0 mph20.9 kmh 29.93 in1013.5 mb 0.00 in0.0 mm 0.00 in0.0 mm 0.14 in3.6 mm
11:28 AM 70.5°F21.4°C 66.1°F18.9°C 86% 2.5 mph S4.0 kmh S 13.0 mph20.9 kmh 29.93 in1013.5 mb 0.00 in0.0 mm 0.00 in0.0 mm 0.14 in3.6 mm
11:33 AM 71.1°F21.7°C 66.7°F19.3°C 86% 1.4 mph W2.3 kmh W 10.0 mph16.1 kmh 29.93 in1013.5 mb 0.00 in0.0 mm 0.00 in0.0 mm 0.14 in3.6 mm
11:38 AM 71.4°F21.9°C 67.0°F19.4°C 86% 4.4 mph SSE7.1 kmh SSE 8.0 mph12.9 kmh 29.94 in1013.9 mb 0.00 in0.0 mm 0.00 in0.0 mm 0.14 in3.6 mm
11:43 AM 71.0°F21.7°C 66.3°F19.1°C 85% 3.2 mph SE5.1 kmh SE 10.0 mph16.1 kmh 29.93 in1013.5 mb 0.00 in0.0 mm 0.00 in0.0 mm 0.14 in3.6 mm
11:48 AM 71.0°F21.7°C 65.6°F18.7°C 83% 6.3 mph S10.1 kmh S 13.8 mph22.2 kmh 29.92 in1013.2 mb 0.00 in0.0 mm 0.00 in0.0 mm 0.14 in3.6 mm
11:53 AM 71.3°F21.8°C 66.2°F19.0°C 84% 5.1 mph S8.2 kmh S 13.8 mph22.2 kmh 29.92 in1013.2 mb 0.00 in0.0 mm 0.00 in0.0 mm 0.14 in3.6 mm
11:58 AM 71.2°F21.8°C 66.1°F18.9°C 84% 3.5 mph SSE5.6 kmh SSE 11.0 mph17.7 kmh 29.91 in1012.9 mb 0.00 in0.0 mm 0.00 in0.0 mm 0.14 in3.6 mm
12:03 PM 71.3°F21.8°C 66.9°F19.4°C 86% 2.1 mph SSE3.4 kmh SSE 11.0 mph17.7 kmh 29.91 in1012.9 mb 0.00 in0.0 mm 0.00 in0.0 mm 0.14 in3.6 mm
12:08 PM 71.4°F21.9°C 66.4°F19.1°C 84% 2.4 mph SW3.9 kmh SW 8.0 mph12.9 kmh 29.90 in1012.5 mb 0.00 in0.0 mm 0.00 in0.0 mm 0.14 in3.6 mm
12:13 PM 71.5°F21.9°C 66.1°F18.9°C 83% 2.3 mph S3.7 kmh S 8.0 mph12.9 kmh 29.90 in1012.5 mb 0.00 in0.0 mm 0.00 in0.0 mm 0.14 in3.6 mm
12:18 PM 71.7°F22.1°C 66.6°F19.2°C 84% 1.4 mph ENE2.3 kmh ENE 5.0 mph8.0 kmh 29.89 in1012.2 mb 0.00 in0.0 mm 0.00 in0.0 mm 0.14 in3.6 mm
12:23 PM 72.0°F22.2°C 66.9°F19.4°C 84% 1.5 mph ENE2.4 kmh ENE 7.5 mph12.1 kmh 29.88 in1011.9 mb 0.00 in0.0 mm 0.00 in0.0 mm 0.14 in3.6 mm
12:28 PM 72.2°F22.3°C 66.5°F19.2°C 82% 3.7 mph S6.0 kmh S 7.5 mph12.1 kmh 29.89 in1012.2 mb 0.00 in0.0 mm 0.00 in0.0 mm 0.14 in3.6 mm
12:33 PM 72.5°F22.5°C 66.8°F19.3°C 82% 5.5 mph SSW8.9 kmh SSW 10.0 mph16.1 kmh 29.89 in1012.2 mb 0.00 in0.0 mm 0.00 in0.0 mm 0.14 in3.6 mm
12:38 PM 72.9°F22.7°C 67.1°F19.5°C 82% 2.7 mph S4.3 kmh S 11.3 mph18.2 kmh 29.89 in1012.2 mb 0.00 in0.0 mm 0.00 in0.0 mm 0.14 in3.6 mm
12:43 PM 73.2°F22.9°C 67.4°F19.7°C 82% 3.1 mph SSW5.0 kmh SSW 12.5 mph20.1 kmh 29.88 in1011.9 mb 0.00 in0.0 mm 0.00 in0.0 mm 0.14 in3.6 mm
12:48 PM 73.1°F22.8°C 66.7°F19.3°C 80% 4.9 mph SSW7.9 kmh SSW 12.5 mph20.1 kmh 29.88 in1011.9 mb 0.00 in0.0 mm 0.00 in0.0 mm 0.14 in3.6 mm
12:53 PM 73.1°F22.8°C 66.7°F19.3°C 80% 2.6 mph SSE4.2 kmh SSE 12.5 mph20.1 kmh 29.88 in1011.9 mb 0.00 in0.0 mm 0.00 in0.0 mm 0.14 in3.6 mm
12:58 PM 73.3°F22.9°C 66.1°F18.9°C 78% 4.6 mph SW7.4 kmh SW 12.5 mph20.1 kmh 29.89 in1012.2 mb 0.00 in0.0 mm 0.00 in0.0 mm 0.14 in3.6 mm
01:03 PM 73.2°F22.9°C 66.4°F19.1°C 79% 4.9 mph S7.9 kmh S 11.3 mph18.2 kmh 29.89 in1012.2 mb 0.00 in0.0 mm 0.00 in0.0 mm 0.14 in3.6 mm
01:08 PM 73.5°F23.1°C 67.4°F19.7°C 81% 1.3 mph SSW2.1 kmh SSW 11.3 mph18.2 kmh 29.89 in1012.2 mb 0.00 in0.0 mm 0.00 in0.0 mm 0.14 in3.6 mm
01:13 PM 74.0°F23.3°C 66.8°F19.3°C 78% 4.5 mph S7.2 kmh S 9.0 mph14.5 kmh 29.90 in1012.5 mb 0.00 in0.0 mm 0.00 in0.0 mm 0.14 in3.6 mm
01:18 PM 74.0°F23.3°C 66.5°F19.2°C 77% 4.1 mph SSE6.6 kmh SSE 9.0 mph14.5 kmh 29.90 in1012.5 mb 0.00 in0.0 mm 0.00 in0.0 mm 0.14 in3.6 mm
01:23 PM 74.2°F23.4°C 67.4°F19.7°C 79% 3.1 mph SSE5.0 kmh SSE 7.5 mph12.1 kmh 29.92 in1013.2 mb 0.00 in0.0 mm 0.00 in0.0 mm 0.14 in3.6 mm
01:28 PM 73.9°F23.3°C 67.1°F19.5°C 79% 2.1 mph SW3.4 kmh SW 10.0 mph16.1 kmh 29.92 in1013.2 mb 0.00 in0.0 mm 0.00 in0.0 mm 0.14 in3.6 mm
01:33 PM 74.4°F23.6°C 66.5°F19.2°C 76% 3.9 mph SSE6.3 kmh SSE 10.0 mph16.1 kmh 29.91 in1012.9 mb 0.00 in0.0 mm 0.00 in0.0 mm 0.14 in3.6 mm
01:38 PM 74.9°F23.8°C 68.1°F20.1°C 79% 2.8 mph S4.5 kmh S 8.8 mph14.2 kmh 29.91 in1012.9 mb 0.00 in0.0 mm 0.00 in0.0 mm 0.14 in3.6 mm
01:43 PM 75.8°F24.3°C 68.2°F20.1°C 77% 2.0 mph SSE3.2 kmh SSE 8.0 mph12.9 kmh 29.91 in1012.9 mb 0.00 in0.0 mm 0.00 in0.0 mm 0.14 in3.6 mm
01:48 PM 76.0°F24.4°C 68.0°F20.0°C 76% 2.2 mph S3.5 kmh S 8.0 mph12.9 kmh 29.90 in1012.5 mb 0.00 in0.0 mm 0.00 in0.0 mm 0.14 in3.6 mm
01:53 PM 75.8°F24.3°C 66.7°F19.3°C 73% 2.2 mph SE3.5 kmh SE 7.0 mph11.3 kmh 29.90 in1012.5 mb 0.00 in0.0 mm 0.00 in0.0 mm 0.14 in3.6 mm
01:58 PM 75.7°F24.3°C 67.4°F19.7°C 75% 3.3 mph SSE5.3 kmh SSE 7.5 mph12.1 kmh 29.90 in1012.5 mb 0.00 in0.0 mm 0.00 in0.0 mm 0.14 in3.6 mm
02:03 PM 75.5°F24.2°C 66.8°F19.3°C 74% 2.0 mph E3.2 kmh E 8.8 mph14.2 kmh 29.90 in1012.5 mb 0.00 in0.0 mm 0.00 in0.0 mm 0.14 in3.6 mm
02:08 PM 75.8°F24.3°C 67.5°F19.7°C 75% 1.4 mph S2.3 kmh S 8.8 mph14.2 kmh 29.89 in1012.2 mb 0.00 in0.0 mm 0.00 in0.0 mm 0.14 in3.6 mm
02:13 PM 75.9°F24.4°C 66.0°F18.9°C 71% 6.3 mph S10.1 kmh S 8.8 mph14.2 kmh 29.89 in1012.2 mb 0.00 in0.0 mm 0.00 in0.0 mm 0.14 in3.6 mm
02:18 PM 75.8°F24.3°C 66.3°F19.1°C 72% 4.5 mph S7.2 kmh S 12.5 mph20.1 kmh 29.89 in1012.2 mb 0.00 in0.0 mm 0.00 in0.0 mm 0.14 in3.6 mm
02:23 PM 76.1°F24.5°C 67.0°F19.4°C 73% 3.6 mph SE5.8 kmh SE 12.5 mph20.1 kmh 29.89 in1012.2 mb 0.00 in0.0 mm 0.00 in0.0 mm 0.14 in3.6 mm
02:28 PM 75.8°F24.3°C 66.3°F19.1°C 72% 4.9 mph S7.9 kmh S 10.0 mph16.1 kmh 29.89 in1012.2 mb 0.00 in0.0 mm 0.00 in0.0 mm 0.14 in3.6 mm
02:33 PM 75.6°F24.2°C 66.5°F19.2°C 73% 2.8 mph S4.5 kmh S 10.0 mph16.1 kmh 29.89 in1012.2 mb 0.00 in0.0 mm 0.00 in0.0 mm 0.14 in3.6 mm
02:38 PM 76.0°F24.4°C 66.5°F19.2°C 72% 4.7 mph SSW7.6 kmh SSW 8.8 mph14.2 kmh 29.90 in1012.5 mb 0.00 in0.0 mm 0.00 in0.0 mm 0.14 in3.6 mm
02:43 PM 75.9°F24.4°C 67.2°F19.6°C 74% 1.9 mph WSW3.1 kmh WSW 8.8 mph14.2 kmh 29.90 in1012.5 mb 0.00 in0.0 mm 0.00 in0.0 mm 0.14 in3.6 mm
02:48 PM 75.7°F24.3°C 67.4°F19.7°C 75% 2.5 mph S4.0 kmh S 8.8 mph14.2 kmh 29.90 in1012.5 mb 0.00 in0.0 mm 0.00 in0.0 mm 0.14 in3.6 mm
02:53 PM 75.5°F24.2°C 66.8°F19.3°C 74% 1.7 mph SE2.7 kmh SE 8.8 mph14.2 kmh 29.90 in1012.5 mb 0.00 in0.0 mm 0.00 in0.0 mm 0.14 in3.6 mm
02:58 PM 75.9°F24.4°C 66.4°F19.1°C 72% 4.1 mph SSE6.6 kmh SSE 8.8 mph14.2 kmh 29.90 in1012.5 mb 0.00 in0.0 mm 0.00 in0.0 mm 0.14 in3.6 mm
03:04 PM 76.6°F24.8°C 68.2°F20.1°C 75% 1.9 mph SSW3.1 kmh SSW 8.8 mph14.2 kmh 29.90 in1012.5 mb 0.00 in0.0 mm 0.00 in0.0 mm 0.14 in3.6 mm
03:09 PM 77.2°F25.1°C 66.9°F19.4°C 70% 4.4 mph SSW7.1 kmh SSW 8.8 mph14.2 kmh 29.90 in1012.5 mb 0.00 in0.0 mm 0.00 in0.0 mm 0.14 in3.6 mm
03:14 PM 77.0°F25.0°C 66.3°F19.1°C 69% 2.7 mph S4.3 kmh S 8.8 mph14.2 kmh 29.90 in1012.5 mb 0.00 in0.0 mm 0.00 in0.0 mm 0.14 in3.6 mm
03:19 PM 76.9°F24.9°C 67.4°F19.7°C 72% 1.5 mph S2.4 kmh S 7.0 mph11.3 kmh 29.90 in1012.5 mb 0.00 in0.0 mm 0.00 in0.0 mm 0.14 in3.6 mm
03:24 PM 76.8°F24.9°C 67.3°F19.6°C 72% Calm Calm 7.0 mph11.3 kmh 29.90 in1012.5 mb 0.00 in0.0 mm 0.00 in0.0 mm 0.14 in3.6 mm
03:29 PM 76.9°F24.9°C 67.8°F19.9°C 73% 1.8 mph SSE2.9 kmh SSE 5.0 mph8.0 kmh 29.89 in1012.2 mb 0.00 in0.0 mm 0.00 in0.0 mm 0.14 in3.6 mm
03:34 PM 77.3°F25.2°C 66.6°F19.2°C 69% 3.1 mph SSE5.0 kmh SSE 6.3 mph10.1 kmh 29.89 in1012.2 mb 0.00 in0.0 mm 0.00 in0.0 mm 0.14 in3.6 mm
03:39 PM 78.1°F25.6°C 67.7°F19.8°C 70% 3.2 mph S5.1 kmh S 6.3 mph10.1 kmh 29.89 in1012.2 mb 0.00 in0.0 mm 0.00 in0.0 mm 0.14 in3.6 mm
03:44 PM 78.5°F25.8°C 68.9°F20.5°C 72% 3.4 mph S5.5 kmh S 6.3 mph10.1 kmh 29.90 in1012.5 mb 0.00 in0.0 mm 0.00 in0.0 mm 0.14 in3.6 mm
03:49 PM 78.8°F26.0°C 66.7°F19.3°C 66% 3.6 mph S5.8 kmh S 10.0 mph16.1 kmh 29.90 in1012.5 mb 0.00 in0.0 mm 0.00 in0.0 mm 0.14 in3.6 mm
03:54 PM 78.3°F25.7°C 66.7°F19.3°C 67% 4.6 mph SSW7.4 kmh SSW 10.0 mph16.1 kmh 29.90 in1012.5 mb 0.00 in0.0 mm 0.00 in0.0 mm 0.14 in3.6 mm
03:59 PM 77.4°F25.2°C 67.1°F19.5°C 70% 4.5 mph SSE7.2 kmh SSE 8.0 mph12.9 kmh 29.89 in1012.2 mb 0.00 in0.0 mm 0.00 in0.0 mm 0.14 in3.6 mm
04:04 PM 77.4°F25.2°C 67.5°F19.7°C 71% 6.8 mph S10.9 kmh S 10.0 mph16.1 kmh 29.90 in1012.5 mb 0.00 in0.0 mm 0.00 in0.0 mm 0.14 in3.6 mm
04:09 PM 77.5°F25.3°C 66.7°F19.3°C 69% 5.5 mph S8.9 kmh S 11.3 mph18.2 kmh 29.90 in1012.5 mb 0.00 in0.0 mm 0.00 in0.0 mm 0.14 in3.6 mm
04:14 PM 77.6°F25.3°C 66.8°F19.3°C 69% 1.8 mph WSW2.9 kmh WSW 11.3 mph18.2 kmh 29.90 in1012.5 mb 0.00 in0.0 mm 0.00 in0.0 mm 0.14 in3.6 mm
04:19 PM 78.0°F25.6°C 68.8°F20.4°C 73% 4.4 mph S7.1 kmh S 9.0 mph14.5 kmh 29.89 in1012.2 mb 0.00 in0.0 mm 0.00 in0.0 mm 0.14 in3.6 mm
04:24 PM 78.2°F25.7°C 66.6°F19.2°C 67% 4.7 mph S7.6 kmh S 8.8 mph14.2 kmh 29.89 in1012.2 mb 0.00 in0.0 mm 0.00 in0.0 mm 0.14 in3.6 mm
04:29 PM 78.4°F25.8°C 68.4°F20.2°C 71% 2.2 mph SW3.5 kmh SW 8.8 mph14.2 kmh 29.89 in1012.2 mb 0.00 in0.0 mm 0.00 in0.0 mm 0.14 in3.6 mm
04:34 PM 78.9°F26.1°C 68.9°F20.5°C 71% 1.3 mph SE2.1 kmh SE 7.0 mph11.3 kmh 29.89 in1012.2 mb 0.00 in0.0 mm 0.00 in0.0 mm 0.14 in3.6 mm
04:39 PM 79.1°F26.2°C 67.4°F19.7°C 67% 3.1 mph SE5.0 kmh SE 7.0 mph11.3 kmh 29.89 in1012.2 mb 0.00 in0.0 mm 0.00 in0.0 mm 0.14 in3.6 mm
04:44 PM 79.2°F26.2°C 67.5°F19.7°C 67% 1.5 mph SSW2.4 kmh SSW 6.3 mph10.1 kmh 29.89 in1012.2 mb 0.00 in0.0 mm 0.00 in0.0 mm 0.14 in3.6 mm
04:49 PM 79.2°F26.2°C 68.8°F20.4°C 70% 1.8 mph SSE2.9 kmh SSE 5.0 mph8.0 kmh 29.89 in1012.2 mb 0.00 in0.0 mm 0.00 in0.0 mm 0.14 in3.6 mm
04:54 PM 79.5°F26.4°C 67.8°F19.9°C 67% 1.3 mph E2.1 kmh E 5.0 mph8.0 kmh 29.89 in1012.2 mb 0.00 in0.0 mm 0.00 in0.0 mm 0.14 in3.6 mm
04:59 PM 80.0°F26.7°C 68.7°F20.4°C 68% 1.3 mph NNE2.1 kmh NNE 4.0 mph6.4 kmh 29.89 in1012.2 mb 0.00 in0.0 mm 0.00 in0.0 mm 0.14 in3.6 mm
05:04 PM 80.3°F26.8°C 66.3°F19.1°C 62% 4.0 mph SSE6.4 kmh SSE 6.3 mph10.1 kmh 29.89 in1012.2 mb 0.00 in0.0 mm 0.00 in0.0 mm 0.14 in3.6 mm
05:09 PM 80.0°F26.7°C 66.7°F19.3°C 64% 1.3 mph S2.1 kmh S 6.3 mph10.1 kmh 29.89 in1012.2 mb 0.00 in0.0 mm 0.00 in0.0 mm 0.14 in3.6 mm
05:14 PM 79.7°F26.5°C 69.5°F20.8°C 71% 1.3 mph W2.1 kmh W 6.3 mph10.1 kmh 29.89 in1012.2 mb 0.00 in0.0 mm 0.00 in0.0 mm 0.14 in3.6 mm
05:19 PM 79.7°F26.5°C 66.7°F19.3°C 64% 1.8 mph SSE2.9 kmh SSE 5.0 mph8.0 kmh 29.89 in1012.2 mb 0.00 in0.0 mm 0.00 in0.0 mm 0.14 in3.6 mm
05:24 PM 80.0°F26.7°C 64.9°F18.3°C 60% 3.9 mph SSE6.3 kmh SSE 6.3 mph10.1 kmh 29.89 in1012.2 mb 0.00 in0.0 mm 0.00 in0.0 mm 0.14 in3.6 mm
05:29 PM 80.1°F26.7°C 67.5°F19.7°C 65% 2.6 mph S4.2 kmh S 6.3 mph10.1 kmh 29.89 in1012.2 mb 0.00 in0.0 mm 0.00 in0.0 mm 0.14 in3.6 mm
05:34 PM 80.3°F26.8°C 66.6°F19.2°C 63% 2.1 mph SE3.4 kmh SE 6.3 mph10.1 kmh 29.89 in1012.2 mb 0.00 in0.0 mm 0.00 in0.0 mm 0.14 in3.6 mm
05:39 PM 80.3°F26.8°C 65.1°F18.4°C 60% 2.5 mph SSE4.0 kmh SSE 5.0 mph8.0 kmh 29.89 in1012.2 mb 0.00 in0.0 mm 0.00 in0.0 mm 0.14 in3.6 mm
05:44 PM 80.2°F26.8°C 64.8°F18.2°C 59% 1.4 mph SE2.3 kmh SE 5.0 mph8.0 kmh 29.89 in1012.2 mb 0.00 in0.0 mm 0.00 in0.0 mm 0.14 in3.6 mm
05:49 PM 80.3°F26.8°C 66.8°F19.3°C 63% 1.3 mph W2.1 kmh W 4.0 mph6.4 kmh 29.89 in1012.2 mb 0.00 in0.0 mm 0.00 in0.0 mm 0.14 in3.6 mm
05:54 PM 80.2°F26.8°C 65.8°F18.8°C 61% 1.8 mph S2.9 kmh S 3.0 mph4.8 kmh 29.89 in1012.2 mb 0.00 in0.0 mm 0.00 in0.0 mm 0.14 in3.6 mm
05:59 PM 80.0°F26.7°C 64.1°F17.8°C 58% 2.4 mph SSE3.9 kmh SSE 6.3 mph10.1 kmh 29.89 in1012.2 mb 0.00 in0.0 mm 0.00 in0.0 mm 0.14 in3.6 mm
06:04 PM 79.6°F26.4°C 65.7°F18.7°C 62% 1.3 mph SSE2.1 kmh SSE 6.3 mph10.1 kmh 29.89 in1012.2 mb 0.00 in0.0 mm 0.00 in0.0 mm 0.14 in3.6 mm
06:09 PM 79.2°F26.2°C 65.8°F18.8°C 63% 1.5 mph S2.4 kmh S 5.0 mph8.0 kmh 29.89 in1012.2 mb 0.00 in0.0 mm 0.00 in0.0 mm 0.14 in3.6 mm
06:14 PM 78.8°F26.0°C 66.7°F19.3°C 66% Calm Calm 5.0 mph8.0 kmh 29.89 in1012.2 mb 0.00 in0.0 mm 0.00 in0.0 mm 0.14 in3.6 mm
06:19 PM 78.6°F25.9°C 65.6°F18.7°C 64% Calm Calm 2.0 mph3.2 kmh 29.90 in1012.5 mb 0.00 in0.0 mm 0.00 in0.0 mm 0.14 in3.6 mm
06:24 PM 78.6°F25.9°C 65.2°F18.4°C 63% 1.3 mph ESE2.1 kmh ESE 2.0 mph3.2 kmh 29.90 in1012.5 mb 0.00 in0.0 mm 0.00 in0.0 mm 0.14 in3.6 mm
06:29 PM 78.6°F25.9°C 65.6°F18.7°C 64% Calm Calm 1.3 mph2.1 kmh 29.90 in1012.5 mb 0.00 in0.0 mm 0.00 in0.0 mm 0.14 in3.6 mm
06:34 PM 78.3°F25.7°C 65.4°F18.6°C 64% Calm Calm 1.0 mph1.6 kmh 29.90 in1012.5 mb 0.00 in0.0 mm 0.00 in0.0 mm 0.14 in3.6 mm
06:39 PM 78.1°F25.6°C 66.5°F19.2°C 67% 2.0 mph SE3.2 kmh SE 2.5 mph4.0 kmh 29.90 in1012.5 mb 0.00 in0.0 mm 0.00 in0.0 mm 0.14 in3.6 mm
06:44 PM 77.7°F25.4°C 65.7°F18.7°C 66% 1.3 mph SE2.1 kmh SE 2.5 mph4.0 kmh 29.90 in1012.5 mb 0.00 in0.0 mm 0.00 in0.0 mm 0.14 in3.6 mm
06:49 PM 77.5°F25.3°C 67.6°F19.8°C 71% 1.3 mph SE2.1 kmh SE 2.5 mph4.0 kmh 29.90 in1012.5 mb 0.00 in0.0 mm 0.00 in0.0 mm 0.14 in3.6 mm
06:54 PM 77.3°F25.2°C 68.2°F20.1°C 73% 1.4 mph SE2.3 kmh SE 2.5 mph4.0 kmh 29.90 in1012.5 mb 0.00 in0.0 mm 0.00 in0.0 mm 0.14 in3.6 mm
06:59 PM 77.1°F25.1°C 68.0°F20.0°C 73% Calm Calm 2.5 mph4.0 kmh 29.90 in1012.5 mb 0.00 in0.0 mm 0.00 in0.0 mm 0.14 in3.6 mm
07:04 PM 76.8°F24.9°C 66.5°F19.2°C 70% 1.9 mph S3.1 kmh S 2.5 mph4.0 kmh 29.90 in1012.5 mb 0.00 in0.0 mm 0.00 in0.0 mm 0.14 in3.6 mm
07:09 PM 76.6°F24.8°C 66.7°F19.3°C 71% 1.3 mph SSE2.1 kmh SSE 3.8 mph6.1 kmh 29.91 in1012.9 mb 0.00 in0.0 mm 0.00 in0.0 mm 0.14 in3.6 mm
07:14 PM 76.5°F24.7°C 66.6°F19.2°C 71% 1.3 mph SSE2.1 kmh SSE 3.8 mph6.1 kmh 29.91 in1012.9 mb 0.00 in0.0 mm 0.00 in0.0 mm 0.14 in3.6 mm
07:19 PM 76.3°F24.6°C 66.8°F19.3°C 72% 1.8 mph SE2.9 kmh SE 3.8 mph6.1 kmh 29.91 in1012.9 mb 0.00 in0.0 mm 0.00 in0.0 mm 0.14 in3.6 mm
07:24 PM 76.0°F24.4°C 67.7°F19.8°C 75% Calm Calm 3.8 mph6.1 kmh 29.91 in1012.9 mb 0.00 in0.0 mm 0.00 in0.0 mm 0.14 in3.6 mm
07:29 PM 75.3°F24.1°C 67.7°F19.8°C 77% Calm Calm 3.0 mph4.8 kmh 29.91 in1012.9 mb 0.00 in0.0 mm 0.00 in0.0 mm 0.14 in3.6 mm
07:34 PM 74.6°F23.7°C 67.0°F19.4°C 77% Calm Calm 3.0 mph4.8 kmh 29.91 in1012.9 mb 0.00 in0.0 mm 0.00 in0.0 mm 0.14 in3.6 mm
07:39 PM 74.1°F23.4°C 67.3°F19.6°C 79% 1.3 mph SE2.1 kmh SE 1.3 mph2.1 kmh 29.91 in1012.9 mb 0.00 in0.0 mm 0.00 in0.0 mm 0.14 in3.6 mm
07:45 PM 73.6°F23.1°C 67.5°F19.7°C 81% Calm Calm 1.3 mph2.1 kmh 29.91 in1012.9 mb 0.00 in0.0 mm 0.00 in0.0 mm 0.14 in3.6 mm
07:50 PM 73.0°F22.8°C 67.2°F19.6°C 82% Calm Calm 1.0 mph1.6 kmh 29.91 in1012.9 mb 0.00 in0.0 mm 0.00 in0.0 mm 0.14 in3.6 mm
07:55 PM 72.4°F22.4°C 67.0°F19.4°C 83% Calm Calm 1.3 mph2.1 kmh 29.91 in1012.9 mb 0.00 in0.0 mm 0.00 in0.0 mm 0.14 in3.6 mm
08:00 PM 71.9°F22.2°C 67.2°F19.6°C 85% 1.3 mph E2.1 kmh E 1.3 mph2.1 kmh 29.91 in1012.9 mb 0.00 in0.0 mm 0.00 in0.0 mm 0.14 in3.6 mm
08:05 PM 71.5°F21.9°C 66.5°F19.2°C 84% Calm Calm 1.3 mph2.1 kmh 29.91 in1012.9 mb 0.00 in0.0 mm 0.00 in0.0 mm 0.14 in3.6 mm
08:10 PM 71.0°F21.7°C 65.6°F18.7°C 83% Calm Calm 1.0 mph1.6 kmh 29.91 in1012.9 mb 0.00 in0.0 mm 0.00 in0.0 mm 0.14 in3.6 mm
08:15 PM 70.7°F21.5°C 65.7°F18.7°C 84% 1.3 mph E2.1 kmh E 1.3 mph2.1 kmh 29.91 in1012.9 mb 0.00 in0.0 mm 0.00 in0.0 mm 0.14 in3.6 mm
08:20 PM 70.3°F21.3°C 65.9°F18.8°C 86% Calm Calm 1.3 mph2.1 kmh 29.91 in1012.9 mb 0.00 in0.0 mm 0.00 in0.0 mm 0.14 in3.6 mm
08:25 PM 69.8°F21.0°C 65.8°F18.8°C 87% Calm Calm 1.0 mph1.6 kmh 29.91 in1012.9 mb 0.00 in0.0 mm 0.00 in0.0 mm 0.14 in3.6 mm
08:30 PM 69.6°F20.9°C 65.6°F18.7°C 87% Calm Calm 1.0 mph1.6 kmh 29.91 in1012.9 mb 0.00 in0.0 mm 0.00 in0.0 mm 0.14 in3.6 mm
08:35 PM 69.3°F20.7°C 64.9°F18.3°C 86% Calm Calm -- 29.91 in1012.9 mb 0.00 in0.0 mm 0.00 in0.0 mm 0.14 in3.6 mm
08:40 PM 69.0°F20.6°C 65.0°F18.3°C 87% Calm Calm -- 29.91 in1012.9 mb 0.00 in0.0 mm 0.00 in0.0 mm 0.14 in3.6 mm
08:45 PM 68.8°F20.4°C 65.1°F18.4°C 88% Calm Calm -- 29.91 in1012.9 mb 0.00 in0.0 mm 0.00 in0.0 mm 0.14 in3.6 mm
08:50 PM 68.5°F20.3°C 64.8°F18.2°C 88% Calm Calm -- 29.91 in1012.9 mb 0.00 in0.0 mm 0.00 in0.0 mm 0.14 in3.6 mm
08:55 PM 68.2°F20.1°C 64.5°F18.1°C 88% Calm Calm -- 29.91 in1012.9 mb 0.00 in0.0 mm 0.00 in0.0 mm 0.14 in3.6 mm
09:00 PM 67.9°F19.9°C 64.5°F18.1°C 89% Calm Calm -- 29.90 in1012.5 mb 0.00 in0.0 mm 0.00 in0.0 mm 0.14 in3.6 mm
09:05 PM 67.7°F19.8°C 64.3°F17.9°C 89% Calm Calm -- 29.91 in1012.9 mb 0.00 in0.0 mm 0.00 in0.0 mm 0.14 in3.6 mm
09:10 PM 67.4°F19.7°C 64.3°F17.9°C 90% Calm Calm -- 29.91 in1012.9 mb 0.00 in0.0 mm 0.00 in0.0 mm 0.14 in3.6 mm
09:15 PM 67.1°F19.5°C 64.0°F17.8°C 90% Calm Calm -- 29.90 in1012.5 mb 0.00 in0.0 mm 0.00 in0.0 mm 0.14 in3.6 mm
09:20 PM 66.8°F19.3°C 64.1°F17.8°C 91% Calm Calm -- 29.91 in1012.9 mb 0.00 in0.0 mm 0.00 in0.0 mm 0.14 in3.6 mm
09:25 PM 66.6°F19.2°C 63.9°F17.7°C 91% Calm Calm -- 29.91 in1012.9 mb 0.00 in0.0 mm 0.00 in0.0 mm 0.14 in3.6 mm
09:30 PM 66.3°F19.1°C 63.6°F17.6°C 91% Calm Calm -- 29.91 in1012.9 mb 0.00 in0.0 mm 0.00 in0.0 mm 0.14 in3.6 mm
09:35 PM 66.0°F18.9°C 63.3°F17.4°C 91% Calm Calm -- 29.91 in1012.9 mb 0.00 in0.0 mm 0.00 in0.0 mm 0.14 in3.6 mm
09:40 PM 65.8°F18.8°C 63.4°F17.4°C 92% Calm Calm -- 29.91 in1012.9 mb 0.00 in0.0 mm 0.00 in0.0 mm 0.14 in3.6 mm
09:45 PM 65.6°F18.7°C 63.2°F17.3°C 92% Calm Calm -- 29.91 in1012.9 mb 0.00 in0.0 mm 0.00 in0.0 mm 0.14 in3.6 mm
09:50 PM 65.4°F18.6°C 63.0°F17.2°C 92% Calm Calm -- 29.91 in1012.9 mb 0.00 in0.0 mm 0.00 in0.0 mm 0.14 in3.6 mm
09:55 PM 65.3°F18.5°C 62.9°F17.2°C 92% Calm Calm -- 29.91 in1012.9 mb 0.00 in0.0 mm 0.00 in0.0 mm 0.14 in3.6 mm
10:00 PM 65.1°F18.4°C 63.0°F17.2°C 93% Calm Calm -- 29.91 in1012.9 mb 0.00 in0.0 mm 0.00 in0.0 mm 0.14 in3.6 mm
10:05 PM 65.0°F18.3°C 62.9°F17.2°C 93% Calm Calm -- 29.92 in1013.2 mb 0.00 in0.0 mm 0.00 in0.0 mm 0.14 in3.6 mm
10:10 PM 64.9°F18.3°C 62.8°F17.1°C 93% Calm Calm -- 29.92 in1013.2 mb 0.00 in0.0 mm 0.00 in0.0 mm 0.14 in3.6 mm
10:15 PM 64.9°F18.3°C 62.8°F17.1°C 93% Calm Calm -- 29.92 in1013.2 mb 0.00 in0.0 mm 0.00 in0.0 mm 0.14 in3.6 mm
10:20 PM 64.8°F18.2°C 62.7°F17.1°C 93% Calm Calm -- 29.92 in1013.2 mb 0.00 in0.0 mm 0.00 in0.0 mm 0.14 in3.6 mm
10:25 PM 64.9°F18.3°C 62.8°F17.1°C 93% Calm Calm -- 29.92 in1013.2 mb 0.00 in0.0 mm 0.00 in0.0 mm 0.14 in3.6 mm
10:31 PM 65.1°F18.4°C 63.3°F17.4°C 94% Calm Calm -- 29.91 in1012.9 mb 0.00 in0.0 mm 0.00 in0.0 mm 0.14 in3.6 mm
10:36 PM 65.3°F18.5°C 63.2°F17.3°C 93% Calm Calm -- 29.91 in1012.9 mb 0.00 in0.0 mm 0.00 in0.0 mm 0.14 in3.6 mm
10:41 PM 65.2°F18.4°C 63.1°F17.3°C 93% Calm Calm -- 29.92 in1013.2 mb 0.00 in0.0 mm 0.00 in0.0 mm 0.14 in3.6 mm
10:46 PM 65.1°F18.4°C 63.0°F17.2°C 93% Calm Calm -- 29.91 in1012.9 mb 0.00 in0.0 mm 0.00 in0.0 mm 0.14 in3.6 mm
10:51 PM 64.9°F18.3°C 62.8°F17.1°C 93% Calm Calm -- 29.92 in1013.2 mb 0.00 in0.0 mm 0.00 in0.0 mm 0.14 in3.6 mm
10:56 PM 64.7°F18.2°C 62.6°F17.0°C 93% Calm Calm -- 29.91 in1012.9 mb 0.00 in0.0 mm 0.00 in0.0 mm 0.14 in3.6 mm
11:01 PM 64.5°F18.1°C 62.4°F16.9°C 93% Calm Calm -- 29.92 in1013.2 mb 0.00 in0.0 mm 0.00 in0.0 mm 0.14 in3.6 mm
11:06 PM 64.5°F18.1°C 62.4°F16.9°C 93% Calm Calm -- 29.92 in1013.2 mb 0.00 in0.0 mm 0.00 in0.0 mm 0.14 in3.6 mm
11:11 PM 64.3°F17.9°C 62.2°F16.8°C 93% Calm Calm -- 29.92 in1013.2 mb 0.00 in0.0 mm 0.00 in0.0 mm 0.14 in3.6 mm
11:16 PM 64.2°F17.9°C 62.4°F16.9°C 94% Calm Calm -- 29.93 in1013.5 mb 0.00 in0.0 mm 0.00 in0.0 mm 0.14 in3.6 mm
11:21 PM 63.9°F17.7°C 62.1°F16.7°C 94% Calm Calm -- 29.93 in1013.5 mb 0.00 in0.0 mm 0.00 in0.0 mm 0.14 in3.6 mm
11:26 PM 63.8°F17.7°C 62.0°F16.7°C 94% Calm Calm -- 29.93 in1013.5 mb 0.00 in0.0 mm 0.00 in0.0 mm 0.14 in3.6 mm
11:31 PM 63.8°F17.7°C 62.0°F16.7°C 94% Calm Calm -- 29.93 in1013.5 mb 0.00 in0.0 mm 0.00 in0.0 mm 0.14 in3.6 mm
11:36 PM 63.7°F17.6°C 61.9°F16.6°C 94% Calm Calm -- 29.93 in1013.5 mb 0.00 in0.0 mm 0.00 in0.0 mm 0.14 in3.6 mm
11:41 PM 63.7°F17.6°C 61.9°F16.6°C 94% Calm Calm -- 29.93 in1013.5 mb 0.00 in0.0 mm 0.00 in0.0 mm 0.14 in3.6 mm
11:46 PM 63.7°F17.6°C 62.2°F16.8°C 95% Calm Calm -- 29.93 in1013.5 mb 0.00 in0.0 mm 0.00 in0.0 mm 0.14 in3.6 mm
11:51 PM 63.7°F17.6°C 62.2°F16.8°C 95% Calm Calm -- 29.93 in1013.5 mb 0.00 in0.0 mm 0.00 in0.0 mm 0.14 in3.6 mm
11:56 PM 63.8°F17.7°C 62.3°F16.8°C 95% Calm Calm -- 29.93 in1013.5 mb 0.00 in0.0 mm 0.00 in0.0 mm 0.14 in3.6 mm